createdAt,value
2019-04-03T00:00:58.608Z,1001.20
2019-04-03T00:01:58.591Z,1001.16
2019-04-03T00:02:58.618Z,1001.19
2019-04-03T00:03:58.565Z,1001.15
2019-04-03T00:04:58.559Z,1001.14
2019-04-03T00:05:58.548Z,1001.16
2019-04-03T00:06:58.536Z,1001.16
2019-04-03T00:07:58.523Z,1001.15
2019-04-03T00:08:58.528Z,1001.15
2019-04-03T00:09:58.506Z,1001.14
2019-04-03T00:10:58.490Z,1001.10
2019-04-03T00:11:58.602Z,1001.11
2019-04-03T00:12:58.477Z,1001.13
2019-04-03T00:13:58.482Z,1001.08
2019-04-03T00:14:58.458Z,1001.09
2019-04-03T00:15:58.443Z,1001.14
2019-04-03T00:16:58.436Z,1001.16
2019-04-03T00:17:58.418Z,1001.20
2019-04-03T00:18:58.405Z,1001.15
2019-04-03T00:19:58.412Z,1001.22
2019-04-03T00:20:58.389Z,1001.20
2019-04-03T00:21:58.408Z,1001.22
2019-04-03T00:22:58.457Z,1001.25
2019-04-03T00:24:06.275Z,1001.25
2019-04-03T00:24:58.346Z,1001.25
2019-04-03T00:25:58.339Z,1001.22
2019-04-03T00:26:58.319Z,1001.18
2019-04-03T00:27:58.316Z,1001.23
2019-04-03T00:28:58.304Z,1001.27
2019-04-03T00:29:58.287Z,1001.22
2019-04-03T00:30:58.276Z,1001.15
2019-04-03T00:31:58.275Z,1001.21
2019-04-03T00:32:58.268Z,1001.18
2019-04-03T00:33:58.276Z,1001.19
2019-04-03T00:34:58.343Z,1001.21
2019-04-03T00:35:58.227Z,1001.18
2019-04-03T00:36:58.211Z,1001.22
2019-04-03T00:37:58.201Z,1001.23
2019-04-03T00:38:58.200Z,1001.21
2019-04-03T00:39:58.195Z,1001.22
2019-04-03T00:40:58.186Z,1001.26
2019-04-03T00:41:58.164Z,1001.24
2019-04-03T00:42:58.182Z,1001.28
2019-04-03T00:43:58.145Z,1001.29
2019-04-03T00:44:58.130Z,1001.30
2019-04-03T00:45:58.130Z,1001.24
2019-04-03T00:46:58.105Z,1001.23
2019-04-03T00:47:58.099Z,1001.26
2019-04-03T00:48:58.194Z,1001.31
2019-04-03T00:49:58.082Z,1001.31
2019-04-03T00:50:58.071Z,1001.35
2019-04-03T00:51:58.137Z,1001.33
2019-04-03T00:52:58.081Z,1001.31
2019-04-03T00:53:58.212Z,1001.23
2019-04-03T00:54:58.029Z,1001.24
2019-04-03T00:55:58.026Z,1001.21
2019-04-03T00:56:58.003Z,1001.23
2019-04-03T00:57:58.105Z,1001.26
2019-04-03T00:58:57.984Z,1001.24
2019-04-03T00:59:57.972Z,1001.24
2019-04-03T01:00:58.040Z,1001.20
2019-04-03T01:01:57.954Z,1001.18
2019-04-03T01:02:58.999Z,1001.22
2019-04-03T01:03:58.824Z,1001.21
2019-04-03T01:04:58.758Z,1001.18
2019-04-03T01:05:58.359Z,1001.21
2019-04-03T01:06:58.714Z,1001.17
2019-04-03T01:07:59.891Z,1001.16
2019-04-03T01:08:59.388Z,1001.11
2019-04-03T01:09:59.579Z,1001.14
2019-04-03T01:10:58.750Z,1001.18
2019-04-03T01:11:58.795Z,1001.15
2019-04-03T01:12:57.837Z,1001.12
2019-04-03T01:13:57.819Z,1001.05
2019-04-03T01:14:57.818Z,1001.08
2019-04-03T01:15:57.797Z,1001.11
2019-04-03T01:16:57.791Z,1001.12
2019-04-03T01:17:57.790Z,1001.07
2019-04-03T01:18:57.769Z,1001.03
2019-04-03T01:19:57.984Z,1001.02
2019-04-03T01:20:57.756Z,1001.07
2019-04-03T01:21:57.738Z,1001.04
2019-04-03T01:22:57.729Z,1001.03
2019-04-03T01:23:57.724Z,1000.99
2019-04-03T01:24:57.703Z,1000.99
2019-04-03T01:25:57.698Z,1000.94
2019-04-03T01:26:57.804Z,1000.94
2019-04-03T01:27:57.677Z,1000.94
2019-04-03T01:28:57.665Z,1000.97
2019-04-03T01:29:57.664Z,1000.92
2019-04-03T01:30:57.640Z,1000.91
2019-04-03T01:31:57.633Z,1000.91
2019-04-03T01:32:57.615Z,1000.84
2019-04-03T01:33:57.727Z,1000.89
2019-04-03T01:34:57.617Z,1000.85
2019-04-03T01:35:57.587Z,1000.83
2019-04-03T01:36:57.574Z,1000.89
2019-04-03T01:37:57.569Z,1000.89
2019-04-03T01:38:57.559Z,1000.86
2019-04-03T01:39:57.605Z,1000.82
2019-04-03T01:40:57.545Z,1000.77
2019-04-03T01:41:57.531Z,1000.78
2019-04-03T01:42:57.519Z,1000.73
2019-04-03T01:43:57.505Z,1000.76
2019-04-03T01:44:57.493Z,1000.72
2019-04-03T01:45:57.505Z,1000.67
2019-04-03T01:46:58.217Z,1000.67
2019-04-03T01:47:58.439Z,1000.65
2019-04-03T01:48:58.578Z,1000.61
2019-04-03T01:49:58.562Z,1000.63
2019-04-03T01:50:59.194Z,1000.64
2019-04-03T01:51:57.415Z,1000.63
2019-04-03T01:52:57.417Z,1000.60
2019-04-03T01:53:57.399Z,1000.55
2019-04-03T01:54:57.385Z,1000.58
2019-04-03T01:55:57.385Z,1000.55
2019-04-03T01:56:57.372Z,1000.51
2019-04-03T01:57:57.356Z,1000.51
2019-04-03T01:58:57.345Z,1000.45
2019-04-03T01:59:57.383Z,1000.41
2019-04-03T02:00:57.324Z,1000.42
2019-04-03T02:01:57.420Z,1000.44
2019-04-03T02:02:57.304Z,1000.42
2019-04-03T02:03:57.293Z,1000.41
2019-04-03T02:04:57.331Z,1000.45
2019-04-03T02:05:57.283Z,1000.45
2019-04-03T02:06:57.269Z,1000.43
2019-04-03T02:07:57.268Z,1000.46
2019-04-03T02:08:57.249Z,1000.49
2019-04-03T02:09:57.234Z,1000.54
2019-04-03T02:10:57.214Z,1000.56
2019-04-03T02:11:57.393Z,1000.57
2019-04-03T02:12:57.194Z,1000.57
2019-04-03T02:13:57.183Z,1000.53
2019-04-03T02:14:57.172Z,1000.48
2019-04-03T02:15:57.256Z,1000.53
2019-04-03T02:16:57.155Z,1000.49
2019-04-03T02:17:57.152Z,1000.55
2019-04-03T02:18:57.134Z,1000.52
2019-04-03T02:19:57.123Z,1000.51
2019-04-03T02:20:57.798Z,1000.51
2019-04-03T02:21:58.561Z,1000.49
2019-04-03T02:22:59.515Z,1000.45
2019-04-03T02:23:57.075Z,1000.40
2019-04-03T02:24:57.065Z,1000.34
2019-04-03T02:25:57.061Z,1000.32
2019-04-03T02:26:57.126Z,1000.29
2019-04-03T02:27:57.059Z,1000.30
2019-04-03T02:28:57.027Z,1000.26
2019-04-03T02:29:57.016Z,1000.35
2019-04-03T02:30:57.013Z,1000.33
2019-04-03T02:31:57.073Z,1000.36
2019-04-03T02:32:57.511Z,1000.37
2019-04-03T02:33:56.985Z,1000.33
2019-04-03T02:34:56.959Z,1000.29
2019-04-03T02:35:56.962Z,1000.29
2019-04-03T02:36:56.945Z,1000.31
2019-04-03T02:37:56.937Z,1000.33
2019-04-03T02:38:56.931Z,1000.30
2019-04-03T02:40:00.091Z,1000.31
2019-04-03T02:40:56.962Z,1000.37
2019-04-03T02:41:56.889Z,1000.36
2019-04-03T02:42:56.882Z,1000.36
2019-04-03T02:43:56.887Z,1000.40
2019-04-03T02:44:56.876Z,1000.41
2019-04-03T02:45:57.398Z,1000.34
2019-04-03T02:46:59.429Z,1000.36
2019-04-03T02:47:56.822Z,1000.33
2019-04-03T02:48:56.831Z,1000.30
2019-04-03T02:49:56.850Z,1000.34
2019-04-03T02:50:56.790Z,1000.36
2019-04-03T02:51:56.780Z,1000.34
2019-04-03T02:52:58.700Z,1000.31
2019-04-03T02:53:56.765Z,1000.36
2019-04-03T02:54:56.749Z,1000.33
2019-04-03T02:55:56.768Z,1000.30
2019-04-03T02:56:56.728Z,1000.33
2019-04-03T02:57:56.721Z,1000.34
2019-04-03T02:58:56.711Z,1000.40
2019-04-03T02:59:58.679Z,1000.38
2019-04-03T03:00:56.897Z,1000.38
2019-04-03T03:01:56.722Z,1000.39
2019-04-03T03:02:56.663Z,1000.40
2019-04-03T03:03:56.659Z,1000.41
2019-04-03T03:04:56.952Z,1000.43
2019-04-03T03:05:59.302Z,1000.44
2019-04-03T03:06:56.621Z,1000.45
2019-04-03T03:07:56.634Z,1000.43
2019-04-03T03:08:56.601Z,1000.44
2019-04-03T03:09:56.595Z,1000.42
2019-04-03T03:10:56.604Z,1000.43
2019-04-03T03:11:57.161Z,1000.43
2019-04-03T03:12:59.860Z,1000.36
2019-04-03T03:13:56.547Z,1000.32
2019-04-03T03:14:56.535Z,1000.38
2019-04-03T03:15:56.525Z,1000.34
2019-04-03T03:16:56.532Z,1000.34
2019-04-03T03:17:56.509Z,1000.30
2019-04-03T03:18:59.901Z,1000.28
2019-04-03T03:19:56.486Z,1000.31
2019-04-03T03:20:56.470Z,1000.29
2019-04-03T03:21:56.471Z,1000.26
2019-04-03T03:22:56.469Z,1000.23
2019-04-03T03:23:57.254Z,1000.23
2019-04-03T03:24:59.718Z,1000.23
2019-04-03T03:25:56.422Z,1000.23
2019-04-03T03:26:56.407Z,1000.23
2019-04-03T03:27:56.411Z,1000.23
2019-04-03T03:28:56.781Z,1000.23
2019-04-03T03:29:58.553Z,1000.20
2019-04-03T03:31:02.038Z,1000.20
2019-04-03T03:32:10.026Z,1000.19
2019-04-03T03:33:22.740Z,1000.23
2019-04-03T03:34:02.996Z,1000.22
2019-04-03T03:35:10.721Z,1000.19
2019-04-03T03:35:57.870Z,1000.25
2019-04-03T03:37:00.124Z,1000.22
2019-04-03T03:37:57.294Z,1000.24
2019-04-03T03:38:56.331Z,1000.30
2019-04-03T03:39:56.274Z,1000.32
2019-04-03T03:40:56.278Z,1000.29
2019-04-03T03:41:58.138Z,1000.27
2019-04-03T03:42:56.235Z,1000.26
2019-04-03T03:43:56.270Z,1000.25
2019-04-03T03:44:56.440Z,1000.28
2019-04-03T03:45:56.211Z,1000.28
2019-04-03T03:46:59.824Z,1000.31
2019-04-03T03:47:56.197Z,1000.34
2019-04-03T03:48:56.284Z,1000.36
2019-04-03T03:49:56.175Z,1000.36
2019-04-03T03:50:57.952Z,1000.38
2019-04-03T03:51:56.149Z,1000.33
2019-04-03T03:52:56.214Z,1000.33
2019-04-03T03:53:56.124Z,1000.39
2019-04-03T03:54:56.129Z,1000.38
2019-04-03T03:55:58.432Z,1000.36
2019-04-03T03:56:56.094Z,1000.36
2019-04-03T03:57:56.331Z,1000.36
2019-04-03T03:58:56.070Z,1000.34
2019-04-03T03:59:56.068Z,1000.34
2019-04-03T04:00:59.517Z,1000.30
2019-04-03T04:01:56.193Z,1000.34
2019-04-03T04:02:56.334Z,1000.35
2019-04-03T04:03:56.015Z,1000.39
2019-04-03T04:04:56.013Z,1000.36
2019-04-03T04:05:56.829Z,1000.39
2019-04-03T04:06:55.978Z,1000.33
2019-04-03T04:07:55.971Z,1000.36
2019-04-03T04:08:55.961Z,1000.35
2019-04-03T04:09:56.236Z,1000.34
2019-04-03T04:10:59.495Z,1000.34
2019-04-03T04:11:55.930Z,1000.31
2019-04-03T04:12:55.919Z,1000.33
2019-04-03T04:13:55.907Z,1000.29
2019-04-03T04:14:57.159Z,1000.28
2019-04-03T04:15:56.265Z,1000.26
2019-04-03T04:16:55.882Z,1000.21
2019-04-03T04:17:55.950Z,1000.21
2019-04-03T04:18:57.538Z,1000.13
2019-04-03T04:19:55.852Z,1000.14
2019-04-03T04:20:55.970Z,1000.17
2019-04-03T04:21:55.822Z,1000.19
2019-04-03T04:22:56.127Z,1000.18
2019-04-03T04:23:56.989Z,1000.23
2019-04-03T04:24:57.144Z,1000.23
2019-04-03T04:25:55.789Z,1000.27
2019-04-03T04:26:55.775Z,1000.30
2019-04-03T04:27:55.753Z,1000.31
2019-04-03T04:28:55.784Z,1000.27
2019-04-03T04:29:55.839Z,1000.26
2019-04-03T04:30:55.730Z,1000.27
2019-04-03T04:31:55.721Z,1000.24
2019-04-03T04:32:55.698Z,1000.27
2019-04-03T04:33:55.689Z,1000.25
2019-04-03T04:34:55.757Z,1000.24
2019-04-03T04:35:55.851Z,1000.26
2019-04-03T04:36:56.126Z,1000.24
2019-04-03T04:37:56.609Z,1000.24
2019-04-03T04:38:55.810Z,1000.23
2019-04-03T04:39:55.823Z,1000.21
2019-04-03T04:40:55.697Z,1000.20
2019-04-03T04:41:55.659Z,1000.17
2019-04-03T04:42:55.595Z,1000.15
2019-04-03T04:43:55.581Z,1000.13
2019-04-03T04:44:55.724Z,1000.11
2019-04-03T04:45:55.563Z,1000.06
2019-04-03T04:46:55.561Z,1000.04
2019-04-03T04:47:55.574Z,1000.02
2019-04-03T04:48:55.527Z,1000.04
2019-04-03T04:49:55.520Z,1000.00
2019-04-03T04:50:55.553Z,999.99
2019-04-03T04:51:57.009Z,1000.03
2019-04-03T04:52:56.716Z,1000.04
2019-04-03T04:53:55.598Z,1000.05
2019-04-03T04:54:55.470Z,1000.09
2019-04-03T04:55:55.492Z,1000.12
2019-04-03T04:56:55.442Z,1000.00
2019-04-03T04:57:55.445Z,1000.08
2019-04-03T04:58:55.427Z,1000.10
2019-04-03T04:59:55.449Z,1000.14
2019-04-03T05:00:55.568Z,1000.15
2019-04-03T05:01:55.431Z,1000.18
2019-04-03T05:02:55.607Z,1000.18
2019-04-03T05:03:55.372Z,1000.19
2019-04-03T05:04:56.184Z,1000.22
2019-04-03T05:05:57.369Z,1000.17
2019-04-03T05:06:55.341Z,1000.23
2019-04-03T05:07:55.341Z,1000.21
2019-04-03T05:08:55.315Z,1000.16
2019-04-03T05:09:55.304Z,1000.19
2019-04-03T05:10:55.297Z,1000.13
2019-04-03T05:11:55.289Z,1000.14
2019-04-03T05:12:55.302Z,1000.14
2019-04-03T05:13:55.541Z,1000.13
2019-04-03T05:14:55.540Z,1000.14
2019-04-03T05:15:55.241Z,1000.16
2019-04-03T05:16:55.890Z,1000.18
2019-04-03T05:17:55.804Z,1000.19
2019-04-03T05:18:55.214Z,1000.18
2019-04-03T05:19:55.211Z,1000.19
2019-04-03T05:20:55.383Z,1000.18
2019-04-03T05:21:55.173Z,1000.13
2019-04-03T05:22:55.727Z,1000.12
2019-04-03T05:23:56.022Z,1000.09
2019-04-03T05:24:55.375Z,1000.11
2019-04-03T05:25:55.140Z,1000.08
2019-04-03T05:26:55.122Z,1000.07
2019-04-03T05:27:55.110Z,1000.09
2019-04-03T05:28:57.607Z,1000.08
2019-04-03T05:29:55.088Z,1000.05
2019-04-03T05:30:55.077Z,1000.07
2019-04-03T05:31:55.093Z,1000.10
2019-04-03T05:32:55.059Z,1000.13
2019-04-03T05:33:55.045Z,1000.14
2019-04-03T05:34:55.044Z,1000.13
2019-04-03T05:35:55.090Z,1000.15
2019-04-03T05:36:55.022Z,1000.11
2019-04-03T05:37:55.004Z,1000.14
2019-04-03T05:38:55.101Z,1000.16
2019-04-03T05:39:55.823Z,1000.14
2019-04-03T05:40:56.495Z,1000.13
2019-04-03T05:41:54.971Z,1000.17
2019-04-03T05:42:54.995Z,1000.19
2019-04-03T05:43:54.938Z,1000.16
2019-04-03T05:44:54.942Z,1000.16
2019-04-03T05:45:54.925Z,1000.15
2019-04-03T05:46:54.906Z,1000.16
2019-04-03T05:47:54.901Z,1000.14
2019-04-03T05:48:54.884Z,1000.13
2019-04-03T05:49:56.083Z,1000.14
2019-04-03T05:50:57.643Z,1000.17
2019-04-03T05:51:54.858Z,1000.14
2019-04-03T05:52:54.931Z,1000.16
2019-04-03T05:53:54.840Z,1000.13
2019-04-03T05:54:54.824Z,1000.14
2019-04-03T05:55:55.137Z,1000.16
2019-04-03T05:56:54.810Z,1000.16
2019-04-03T05:57:54.801Z,1000.17
2019-04-03T05:58:57.197Z,1000.14
2019-04-03T06:00:00.596Z,1000.14
2019-04-03T06:01:04.420Z,1000.13
2019-04-03T06:01:55.749Z,1000.11
2019-04-03T06:02:57.185Z,1000.14
2019-04-03T06:03:54.725Z,1000.11
2019-04-03T06:04:54.741Z,1000.10
2019-04-03T06:05:57.353Z,1000.10
2019-04-03T06:06:54.724Z,1000.16
2019-04-03T06:07:54.856Z,1000.10
2019-04-03T06:08:56.467Z,1000.08
2019-04-03T06:09:58.331Z,1000.05
2019-04-03T06:10:54.655Z,1000.04
2019-04-03T06:11:54.825Z,1000.05
2019-04-03T06:12:54.694Z,1000.05
2019-04-03T06:13:54.624Z,1000.07
2019-04-03T06:14:54.613Z,1000.08
2019-04-03T06:15:54.874Z,1000.11
2019-04-03T06:16:56.183Z,1000.11
2019-04-03T06:17:55.739Z,1000.10
2019-04-03T06:18:54.565Z,1000.10
2019-04-03T06:19:54.555Z,1000.09
2019-04-03T06:20:54.551Z,1000.05
2019-04-03T06:21:54.614Z,1000.02
2019-04-03T06:22:54.538Z,1000.04
2019-04-03T06:23:54.512Z,1000.02
2019-04-03T06:24:56.436Z,1000.03
2019-04-03T06:25:54.496Z,999.97
2019-04-03T06:26:54.486Z,1000.02
2019-04-03T06:27:54.481Z,999.98
2019-04-03T06:28:54.471Z,999.97
2019-04-03T06:29:55.068Z,1000.00
2019-04-03T06:30:56.613Z,1000.00
2019-04-03T06:31:55.918Z,999.98
2019-04-03T06:32:55.399Z,999.95
2019-04-03T06:33:54.408Z,999.93
2019-04-03T06:34:54.397Z,999.93
2019-04-03T06:35:54.386Z,999.92
2019-04-03T06:36:54.587Z,999.90
2019-04-03T06:37:54.372Z,999.91
2019-04-03T06:38:56.081Z,999.93
2019-04-03T06:39:54.343Z,999.98
2019-04-03T06:40:54.328Z,999.94
2019-04-03T06:41:54.665Z,1000.00
2019-04-03T06:42:54.319Z,1000.04
2019-04-03T06:43:54.664Z,1000.05
2019-04-03T06:44:54.292Z,999.99
2019-04-03T06:45:56.970Z,1000.04
2019-04-03T06:46:55.021Z,1000.05
2019-04-03T06:47:54.465Z,1000.03
2019-04-03T06:48:55.693Z,1000.02
2019-04-03T06:49:54.249Z,1000.02
2019-04-03T06:50:54.225Z,999.95
2019-04-03T06:51:54.371Z,999.91
2019-04-03T06:52:54.205Z,999.91
2019-04-03T06:53:54.193Z,999.89
2019-04-03T06:54:54.207Z,999.86
2019-04-03T06:55:54.277Z,999.89
2019-04-03T06:56:54.217Z,999.94
2019-04-03T06:57:54.203Z,999.93
2019-04-03T06:58:54.142Z,999.92
2019-04-03T06:59:54.123Z,999.92
2019-04-03T07:00:55.040Z,999.95
2019-04-03T07:01:54.109Z,999.92
2019-04-03T07:02:54.287Z,999.93
2019-04-03T07:03:54.096Z,999.93
2019-04-03T07:04:54.076Z,999.94
2019-04-03T07:05:54.319Z,999.93
2019-04-03T07:06:56.269Z,999.97
2019-04-03T07:07:54.044Z,999.94
2019-04-03T07:08:54.037Z,999.97
2019-04-03T07:09:54.022Z,999.93
2019-04-03T07:10:55.561Z,999.94
2019-04-03T07:11:54.007Z,999.95
2019-04-03T07:12:53.998Z,999.88
2019-04-03T07:13:54.473Z,999.93
2019-04-03T07:14:53.971Z,999.88
2019-04-03T07:15:55.956Z,999.87
2019-04-03T07:16:53.973Z,999.91
2019-04-03T07:17:53.936Z,999.92
2019-04-03T07:18:53.924Z,999.95
2019-04-03T07:19:54.215Z,999.91
2019-04-03T07:20:53.979Z,999.96
2019-04-03T07:21:55.225Z,999.99
2019-04-03T07:22:54.140Z,999.97
2019-04-03T07:23:53.875Z,999.99
2019-04-03T07:24:53.862Z,999.96
2019-04-03T07:25:53.852Z,999.96
2019-04-03T07:26:53.894Z,999.93
2019-04-03T07:27:53.924Z,999.93
2019-04-03T07:28:53.817Z,999.94
2019-04-03T07:29:53.818Z,999.90
2019-04-03T07:30:53.983Z,999.92
2019-04-03T07:31:55.172Z,999.93
2019-04-03T07:32:57.042Z,999.96
2019-04-03T07:33:53.998Z,999.93
2019-04-03T07:34:53.750Z,999.92
2019-04-03T07:35:53.755Z,999.93
2019-04-03T07:36:53.732Z,999.93
2019-04-03T07:37:53.721Z,999.94
2019-04-03T07:38:53.721Z,999.95
2019-04-03T07:39:53.704Z,999.96
2019-04-03T07:40:54.042Z,999.95
2019-04-03T07:41:54.803Z,999.98
2019-04-03T07:42:55.377Z,999.96
2019-04-03T07:43:53.667Z,1000.01
2019-04-03T07:44:53.678Z,1000.01
2019-04-03T07:45:53.635Z,1000.00
2019-04-03T07:46:55.519Z,1000.02
2019-04-03T07:47:53.614Z,1000.06
2019-04-03T07:48:53.616Z,1000.01
2019-04-03T07:49:53.596Z,1000.00
2019-04-03T07:50:53.576Z,1000.08
2019-04-03T07:51:53.565Z,1000.06
2019-04-03T07:52:53.558Z,1000.04
2019-04-03T07:53:53.552Z,1000.02
2019-04-03T07:54:56.438Z,1000.01
2019-04-03T07:55:55.120Z,1000.01
2019-04-03T07:56:56.426Z,1000.03
2019-04-03T07:57:53.500Z,999.99
2019-04-03T07:58:53.677Z,999.93
2019-04-03T07:59:53.490Z,999.96
2019-04-03T08:00:53.468Z,999.99
2019-04-03T08:01:53.460Z,1000.02
2019-04-03T08:02:53.552Z,999.96
2019-04-03T08:03:53.507Z,999.99
2019-04-03T08:04:54.208Z,999.91
2019-04-03T08:05:55.910Z,999.90
2019-04-03T08:06:53.503Z,999.87
2019-04-03T08:07:53.393Z,999.89
2019-04-03T08:09:07.018Z,999.94
2019-04-03T08:09:57.349Z,999.91
2019-04-03T08:10:53.376Z,999.96
2019-04-03T08:11:53.351Z,999.92
2019-04-03T08:12:53.339Z,999.90
2019-04-03T08:13:53.394Z,999.94
2019-04-03T08:14:53.390Z,999.95
2019-04-03T08:15:53.410Z,1000.00
2019-04-03T08:16:55.960Z,999.92
2019-04-03T08:17:53.753Z,999.99
2019-04-03T08:18:53.282Z,999.98
2019-04-03T08:19:54.383Z,999.98
2019-04-03T08:20:53.393Z,999.97
2019-04-03T08:21:53.289Z,999.93
2019-04-03T08:22:53.232Z,999.95
2019-04-03T08:23:53.223Z,999.95
2019-04-03T08:24:53.762Z,999.96
2019-04-03T08:25:54.245Z,999.89
2019-04-03T08:26:53.513Z,999.96
2019-04-03T08:27:55.630Z,999.92
2019-04-03T08:28:53.168Z,999.94
2019-04-03T08:29:53.157Z,999.96
2019-04-03T08:30:53.766Z,999.94
2019-04-03T08:31:53.145Z,999.96
2019-04-03T08:32:53.129Z,999.90
2019-04-03T08:33:53.122Z,999.91
2019-04-03T08:34:53.226Z,999.89
2019-04-03T08:35:53.101Z,999.91
2019-04-03T08:36:53.250Z,999.96
2019-04-03T08:37:53.443Z,999.87
2019-04-03T08:38:53.067Z,999.85
2019-04-03T08:39:53.284Z,999.86
2019-04-03T08:40:53.547Z,999.84
2019-04-03T08:41:55.306Z,999.85
2019-04-03T08:42:53.361Z,999.82
2019-04-03T08:43:53.012Z,999.78
2019-04-03T08:44:52.997Z,999.76
2019-04-03T08:45:52.997Z,999.70
2019-04-03T08:46:53.024Z,999.73
2019-04-03T08:47:52.974Z,999.70
2019-04-03T08:48:55.114Z,999.70
2019-04-03T08:49:52.943Z,999.74
2019-04-03T08:50:52.937Z,999.68
2019-04-03T08:51:52.921Z,999.70
2019-04-03T08:52:52.931Z,999.69
2019-04-03T08:53:54.764Z,999.65
2019-04-03T08:54:52.894Z,999.62
2019-04-03T08:55:54.127Z,999.65
2019-04-03T08:56:52.874Z,999.65
2019-04-03T08:57:53.297Z,999.62
2019-04-03T08:58:52.865Z,999.59
2019-04-03T08:59:53.106Z,999.53
2019-04-03T09:00:52.833Z,999.57
2019-04-03T09:01:55.133Z,999.57
2019-04-03T09:02:52.812Z,999.60
2019-04-03T09:03:53.215Z,999.58
2019-04-03T09:04:52.946Z,999.59
2019-04-03T09:05:55.653Z,999.58
2019-04-03T09:06:54.137Z,999.58
2019-04-03T09:07:55.294Z,999.55
2019-04-03T09:08:52.751Z,999.62
2019-04-03T09:09:52.735Z,999.59
2019-04-03T09:10:52.726Z,999.60
2019-04-03T09:11:52.708Z,999.59
2019-04-03T09:12:52.697Z,999.65
2019-04-03T09:13:54.818Z,999.63
2019-04-03T09:14:52.683Z,999.68
2019-04-03T09:15:52.670Z,999.62
2019-04-03T09:16:52.922Z,999.67
2019-04-03T09:17:52.652Z,999.61
2019-04-03T09:18:52.640Z,999.62
2019-04-03T09:19:52.971Z,999.61
2019-04-03T09:20:52.634Z,999.61
2019-04-03T09:21:52.611Z,999.60
2019-04-03T09:22:53.952Z,999.59
2019-04-03T09:23:52.585Z,999.54
2019-04-03T09:24:52.583Z,999.55
2019-04-03T09:25:52.574Z,999.58
2019-04-03T09:26:52.558Z,999.50
2019-04-03T09:27:52.541Z,999.54
2019-04-03T09:28:52.531Z,999.53
2019-04-03T09:29:52.826Z,999.44
2019-04-03T09:30:54.119Z,999.48
2019-04-03T09:31:55.877Z,999.48
2019-04-03T09:32:53.675Z,999.47
2019-04-03T09:33:52.518Z,999.44
2019-04-03T09:34:52.576Z,999.39
2019-04-03T09:35:52.523Z,999.41
2019-04-03T09:36:52.452Z,999.41
2019-04-03T09:37:52.438Z,999.36
2019-04-03T09:38:52.435Z,999.32
2019-04-03T09:39:52.667Z,999.31
2019-04-03T09:40:52.666Z,999.24
2019-04-03T09:41:52.403Z,999.25
2019-04-03T09:42:52.385Z,999.22
2019-04-03T09:43:54.507Z,999.24
2019-04-03T09:44:55.146Z,999.19
2019-04-03T09:45:52.357Z,999.22
2019-04-03T09:46:52.351Z,999.22
2019-04-03T09:47:52.345Z,999.23
2019-04-03T09:48:52.328Z,999.20
2019-04-03T09:49:52.316Z,999.28
2019-04-03T09:50:52.306Z,999.23
2019-04-03T09:51:53.140Z,999.22
2019-04-03T09:52:54.198Z,999.25
2019-04-03T09:53:52.503Z,999.23
2019-04-03T09:54:52.262Z,999.13
2019-04-03T09:55:52.460Z,999.16
2019-04-03T09:56:59.332Z,999.13
2019-04-03T09:57:53.412Z,999.12
2019-04-03T09:58:52.218Z,999.12
2019-04-03T09:59:52.559Z,999.12
2019-04-03T10:00:52.203Z,999.14
2019-04-03T10:01:52.432Z,999.11
2019-04-03T10:02:52.182Z,999.09
2019-04-03T10:03:55.084Z,999.12
2019-04-03T10:04:52.166Z,999.13
2019-04-03T10:05:52.147Z,999.10
2019-04-03T10:06:52.144Z,999.13
2019-04-03T10:07:52.129Z,999.11
2019-04-03T10:08:52.444Z,999.05
2019-04-03T10:09:53.929Z,999.02
2019-04-03T10:10:52.227Z,999.02
2019-04-03T10:11:52.646Z,999.00
2019-04-03T10:12:54.160Z,998.98
2019-04-03T10:13:52.067Z,998.95
2019-04-03T10:14:52.056Z,998.96
2019-04-03T10:15:52.047Z,998.96
2019-04-03T10:16:52.037Z,998.91
2019-04-03T10:17:52.032Z,998.92
2019-04-03T10:18:52.012Z,998.93
2019-04-03T10:19:52.345Z,998.91
2019-04-03T10:20:52.009Z,998.92
2019-04-03T10:21:53.414Z,998.94
2019-04-03T10:22:51.975Z,998.91
2019-04-03T10:23:52.075Z,998.93
2019-04-03T10:24:52.042Z,998.86
2019-04-03T10:25:53.529Z,998.91
2019-04-03T10:26:51.929Z,998.90
2019-04-03T10:27:52.170Z,998.89
2019-04-03T10:28:51.911Z,998.85
2019-04-03T10:29:51.918Z,998.82
2019-04-03T10:30:52.833Z,998.81
2019-04-03T10:31:54.789Z,998.79
2019-04-03T10:32:51.880Z,998.76
2019-04-03T10:33:51.942Z,998.80
2019-04-03T10:34:52.287Z,998.79
2019-04-03T10:35:51.838Z,998.73
2019-04-03T10:36:51.831Z,998.68
2019-04-03T10:37:51.944Z,998.71
2019-04-03T10:38:51.811Z,998.66
2019-04-03T10:39:52.769Z,998.67
2019-04-03T10:40:51.978Z,998.71
2019-04-03T10:41:51.780Z,998.69
2019-04-03T10:42:51.769Z,998.66
2019-04-03T10:43:51.755Z,998.60
2019-04-03T10:44:51.743Z,998.54
2019-04-03T10:45:51.764Z,998.57
2019-04-03T10:46:51.722Z,998.56
2019-04-03T10:47:51.721Z,998.51
2019-04-03T10:48:51.840Z,998.51
2019-04-03T10:49:51.700Z,998.50
2019-04-03T10:50:51.686Z,998.51
2019-04-03T10:51:51.779Z,998.48
2019-04-03T10:52:51.664Z,998.55
2019-04-03T10:53:52.521Z,998.54
2019-04-03T10:54:51.645Z,998.52
2019-04-03T10:55:51.701Z,998.51
2019-04-03T10:56:51.685Z,998.44
2019-04-03T10:57:51.622Z,998.47
2019-04-03T10:58:51.695Z,998.51
2019-04-03T10:59:54.513Z,998.46
2019-04-03T11:00:51.582Z,998.43
2019-04-03T11:01:51.621Z,998.43
2019-04-03T11:02:51.854Z,998.49
2019-04-03T11:03:51.546Z,998.47
2019-04-03T11:04:51.852Z,998.50
2019-04-03T11:05:51.724Z,998.47
2019-04-03T11:06:51.517Z,998.45
2019-04-03T11:07:51.541Z,998.43
2019-04-03T11:08:51.497Z,998.37
2019-04-03T11:09:51.488Z,998.38
2019-04-03T11:10:51.773Z,998.38
2019-04-03T11:11:51.750Z,998.37
2019-04-03T11:12:51.467Z,998.34
2019-04-03T11:13:51.458Z,998.31
2019-04-03T11:14:51.526Z,998.28
2019-04-03T11:15:51.419Z,998.23
2019-04-03T11:16:51.526Z,998.22
2019-04-03T11:17:51.506Z,998.17
2019-04-03T11:18:58.482Z,998.16
2019-04-03T11:19:52.395Z,998.13
2019-04-03T11:20:51.371Z,998.06
2019-04-03T11:21:51.355Z,998.05
2019-04-03T11:23:04.057Z,998.01
2019-04-03T11:23:52.595Z,998.01
2019-04-03T11:24:51.917Z,997.96
2019-04-03T11:25:51.539Z,997.96
2019-04-03T11:26:52.460Z,997.97
2019-04-03T11:27:51.704Z,997.92
2019-04-03T11:28:51.618Z,997.88
2019-04-03T11:29:51.666Z,997.88
2019-04-03T11:30:54.599Z,997.88
2019-04-03T11:31:51.265Z,997.92
2019-04-03T11:32:51.550Z,997.80
2019-04-03T11:33:51.548Z,997.86
2019-04-03T11:34:53.354Z,997.81
2019-04-03T11:35:53.681Z,997.80
2019-04-03T11:36:51.994Z,997.82
2019-04-03T11:37:51.196Z,997.77
2019-04-03T11:38:51.215Z,997.78
2019-04-03T11:40:01.347Z,997.73
2019-04-03T11:40:52.715Z,997.70
2019-04-03T11:41:51.387Z,997.71
2019-04-03T11:42:51.152Z,997.70
2019-04-03T11:43:51.134Z,997.70
2019-04-03T11:44:51.520Z,997.70
2019-04-03T11:45:51.108Z,997.66
2019-04-03T11:46:51.142Z,997.72
2019-04-03T11:47:51.261Z,997.74
2019-04-03T11:48:51.091Z,997.72
2019-04-03T11:49:52.355Z,997.72
2019-04-03T11:50:51.169Z,997.66
2019-04-03T11:51:51.049Z,997.67
2019-04-03T11:52:51.756Z,997.60
2019-04-03T11:53:51.150Z,997.62
2019-04-03T11:54:52.836Z,997.59
2019-04-03T11:55:51.013Z,997.55
2019-04-03T11:56:51.186Z,997.52
2019-04-03T11:57:50.997Z,997.56
2019-04-03T11:58:52.032Z,997.55
2019-04-03T11:59:51.207Z,997.57
2019-04-03T12:00:51.057Z,997.53
2019-04-03T12:01:51.195Z,997.51
2019-04-03T12:02:51.162Z,997.48
2019-04-03T12:03:51.619Z,997.54
2019-04-03T12:04:50.911Z,997.45
2019-04-03T12:05:50.899Z,997.41
2019-04-03T12:06:51.954Z,997.45
2019-04-03T12:07:51.235Z,997.45
2019-04-03T12:08:50.875Z,997.46
2019-04-03T12:09:51.061Z,997.42
2019-04-03T12:10:50.848Z,997.35
2019-04-03T12:11:50.848Z,997.42
2019-04-03T12:12:50.834Z,997.45
2019-04-03T12:13:50.835Z,997.39
2019-04-03T12:14:51.201Z,997.38
2019-04-03T12:15:53.196Z,997.36